sensor_id;sensor_type;location;lat;lon;timestamp;pressure;altitude;pressure_sealevel;temperature;humidity
46303;BME280;32029;51.358;5.628;2023-02-20T00:02:18;102392.72;;;8.30;88.94
46303;BME280;32029;51.358;5.628;2023-02-20T00:04:45;102386.63;;;8.38;89.49
46303;BME280;32029;51.358;5.628;2023-02-20T00:07:12;102378.41;;;8.38;89.00
46303;BME280;32029;51.358;5.628;2023-02-20T00:09:39;102377.31;;;8.50;89.00
46303;BME280;32029;51.358;5.628;2023-02-20T00:12:06;102345.59;;;8.38;88.74
46303;BME280;32029;51.358;5.628;2023-02-20T00:14:33;102332.88;;;8.37;88.60
46303;BME280;32029;51.358;5.628;2023-02-20T00:16:59;102372.22;;;8.66;88.40
46303;BME280;32029;51.358;5.628;2023-02-20T00:19:26;102366.19;;;8.72;88.43
46303;BME280;32029;51.358;5.628;2023-02-20T00:21:53;102362.16;;;8.76;87.74
46303;BME280;32029;51.358;5.628;2023-02-20T00:24:20;102358.56;;;8.76;87.70
46303;BME280;32029;51.358;5.628;2023-02-20T00:26:48;102354.72;;;8.78;87.65
46303;BME280;32029;51.358;5.628;2023-02-20T00:29:16;102351.81;;;8.80;87.11
46303;BME280;32029;51.358;5.628;2023-02-20T00:31:49;102345.47;;;8.79;86.79
46303;BME280;32029;51.358;5.628;2023-02-20T00:34:16;102349.06;;;8.70;86.91
46303;BME280;32029;51.358;5.628;2023-02-20T00:36:43;102351.22;;;8.67;87.43
46303;BME280;32029;51.358;5.628;2023-02-20T00:39:10;102339.66;;;8.63;87.26
46303;BME280;32029;51.358;5.628;2023-02-20T00:41:37;102337.47;;;8.57;87.33
46303;BME280;32029;51.358;5.628;2023-02-20T00:44:03;102320.53;;;8.42;87.27
46303;BME280;32029;51.358;5.628;2023-02-20T00:46:30;102335.56;;;8.48;87.39
46303;BME280;32029;51.358;5.628;2023-02-20T00:48:57;102327.78;;;8.43;87.36
46303;BME280;32029;51.358;5.628;2023-02-20T00:51:24;102329.91;;;8.40;87.99
46303;BME280;32029;51.358;5.628;2023-02-20T00:53:51;102333.78;;;8.37;87.77
46303;BME280;32029;51.358;5.628;2023-02-20T00:56:18;102342.09;;;8.35;88.20
46303;BME280;32029;51.358;5.628;2023-02-20T00:58:44;102330.69;;;8.30;88.12
46303;BME280;32029;51.358;5.628;2023-02-20T01:01:11;102322.63;;;8.29;88.44
46303;BME280;32029;51.358;5.628;2023-02-20T01:03:38;102317.31;;;8.27;88.78
46303;BME280;32029;51.358;5.628;2023-02-20T01:06:05;102310.06;;;8.26;88.52
46303;BME280;32029;51.358;5.628;2023-02-20T01:08:31;102297.69;;;8.22;88.64
46303;BME280;32029;51.358;5.628;2023-02-20T01:10:58;102264.16;;;7.99;88.82
46303;BME280;32029;51.358;5.628;2023-02-20T01:13:25;102286.63;;;8.24;88.85
46303;BME280;32029;51.358;5.628;2023-02-20T01:15:52;102295.69;;;8.24;88.76
46303;BME280;32029;51.358;5.628;2023-02-20T01:18:19;102285.75;;;8.23;88.87
46303;BME280;32029;51.358;5.628;2023-02-20T01:20:45;102293.66;;;8.26;88.71
46303;BME280;32029;51.358;5.628;2023-02-20T01:23:12;102294.69;;;8.25;89.07
46303;BME280;32029;51.358;5.628;2023-02-20T01:25:38;102276.31;;;8.06;89.17
46303;BME280;32029;51.358;5.628;2023-02-20T01:28:05;102296.22;;;8.18;89.33
46303;BME280;32029;51.358;5.628;2023-02-20T01:30:32;102289.88;;;8.18;88.85
46303;BME280;32029;51.358;5.628;2023-02-20T01:32:59;102296.63;;;8.14;89.31
46303;BME280;32029;51.358;5.628;2023-02-20T01:35:25;102305.97;;;8.11;88.97
46303;BME280;32029;51.358;5.628;2023-02-20T01:37:57;102304.78;;;8.04;89.23
46303;BME280;32029;51.358;5.628;2023-02-20T01:40:26;102312.00;;;8.05;89.56
46303;BME280;32029;51.358;5.628;2023-02-20T01:42:53;102269.66;;;7.78;89.52
46303;BME280;32029;51.358;5.628;2023-02-20T01:47:51;102307.03;;;7.99;89.70
46303;BME280;32029;51.358;5.628;2023-02-20T01:50:21;102307.03;;;7.99;89.85
46303;BME280;32029;51.358;5.628;2023-02-20T01:52:52;102280.09;;;7.84;90.29
46303;BME280;32029;51.358;5.628;2023-02-20T01:55:25;102300.66;;;7.89;89.89
46303;BME280;32029;51.358;5.628;2023-02-20T01:57:57;102299.22;;;7.84;90.42
46303;BME280;32029;51.358;5.628;2023-02-20T02:00:26;102268.63;;;7.70;90.42
46303;BME280;32029;51.358;5.628;2023-02-20T02:03:00;102276.47;;;7.84;90.36
46303;BME280;32029;51.358;5.628;2023-02-20T02:05:29;102287.53;;;7.82;90.81
46303;BME280;32029;51.358;5.628;2023-02-20T02:07:58;102274.13;;;7.79;91.09
46303;BME280;32029;51.358;5.628;2023-02-20T02:10:57;102274.41;;;7.76;91.02
46303;BME280;32029;51.358;5.628;2023-02-20T02:13:25;102257.44;;;7.73;91.25
46303;BME280;32029;51.358;5.628;2023-02-20T02:15:53;102247.63;;;7.70;91.08
46303;BME280;32029;51.358;5.628;2023-02-20T02:27:14;102220.09;;;7.62;92.26
46303;BME280;32029;51.358;5.628;2023-02-20T02:30:10;102212.16;;;7.59;92.57
46303;BME280;32029;51.358;5.628;2023-02-20T02:32:47;102210.44;;;7.58;92.49
46303;BME280;32029;51.358;5.628;2023-02-20T02:41:10;102192.84;;;7.51;93.17
46303;BME280;32029;51.358;5.628;2023-02-20T02:43:47;102209.09;;;7.52;92.86
46303;BME280;32029;51.358;5.628;2023-02-20T02:46:35;102223.31;;;7.46;93.31
46303;BME280;32029;51.358;5.628;2023-02-20T02:49:13;102207.44;;;7.40;93.72
46303;BME280;32029;51.358;5.628;2023-02-20T02:51:43;102197.53;;;7.39;93.97
46303;BME280;32029;51.358;5.628;2023-02-20T02:54:18;102206.22;;;7.33;94.59
46303;BME280;32029;51.358;5.628;2023-02-20T02:56:53;102208.09;;;7.32;94.84
46303;BME280;32029;51.358;5.628;2023-02-20T02:59:40;102203.66;;;7.31;94.81
46303;BME280;32029;51.358;5.628;2023-02-20T03:02:12;102189.75;;;7.34;94.55
46303;BME280;32029;51.358;5.628;2023-02-20T03:04:41;102193.19;;;7.36;94.67
46303;BME280;32029;51.358;5.628;2023-02-20T03:07:13;102184.38;;;7.33;95.39
46303;BME280;32029;51.358;5.628;2023-02-20T03:09:46;102182.81;;;7.30;95.62
46303;BME280;32029;51.358;5.628;2023-02-20T03:12:15;102159.00;;;7.21;95.64
46303;BME280;32029;51.358;5.628;2023-02-20T03:14:58;102176.09;;;7.34;95.68
46303;BME280;32029;51.358;5.628;2023-02-20T03:20:25;102140.69;;;7.33;95.59
46303;BME280;32029;51.358;5.628;2023-02-20T03:22:53;102171.00;;;7.51;95.56
46303;BME280;32029;51.358;5.628;2023-02-20T03:25:28;102165.03;;;7.57;95.09
46303;BME280;32029;51.358;5.628;2023-02-20T03:28:02;102171.03;;;7.60;95.08
46303;BME280;32029;51.358;5.628;2023-02-20T03:33:24;102172.84;;;7.71;94.88
46303;BME280;32029;51.358;5.628;2023-02-20T03:36:17;102171.81;;;7.72;95.07
46303;BME280;32029;51.358;5.628;2023-02-20T03:39:10;102175.16;;;7.76;95.10
46303;BME280;32029;51.358;5.628;2023-02-20T03:41:59;102178.47;;;7.79;95.26
46303;BME280;32029;51.358;5.628;2023-02-20T03:44:45;102179.22;;;7.81;95.33
46303;BME280;32029;51.358;5.628;2023-02-20T03:47:14;102172.75;;;7.82;95.15
46303;BME280;32029;51.358;5.628;2023-02-20T03:49:46;102166.28;;;7.83;95.30
46303;BME280;32029;51.358;5.628;2023-02-20T03:52:16;102180.41;;;7.89;95.07
46303;BME280;32029;51.358;5.628;2023-02-20T03:54:43;102173.66;;;7.93;95.38
46303;BME280;32029;51.358;5.628;2023-02-20T03:57:14;102126.94;;;7.65;95.32
46303;BME280;32029;51.358;5.628;2023-02-20T03:59:49;102170.09;;;8.02;94.89
46303;BME280;32029;51.358;5.628;2023-02-20T04:02:24;102171.81;;;8.03;95.30
46303;BME280;32029;51.358;5.628;2023-02-20T04:04:55;102159.44;;;7.99;95.30
46303;BME280;32029;51.358;5.628;2023-02-20T04:07:44;102160.63;;;8.06;95.26
46303;BME280;32029;51.358;5.628;2023-02-20T04:10:18;102149.94;;;8.03;95.48
46303;BME280;32029;51.358;5.628;2023-02-20T04:12:48;102147.22;;;8.03;95.36
46303;BME280;32029;51.358;5.628;2023-02-20T04:15:16;102153.44;;;8.05;95.53
46303;BME280;32029;51.358;5.628;2023-02-20T04:17:48;102131.81;;;7.92;95.42
46303;BME280;32029;51.358;5.628;2023-02-20T04:20:16;102155.72;;;8.00;95.33
46303;BME280;32029;51.358;5.628;2023-02-20T04:22:47;102156.00;;;7.97;95.46
46303;BME280;32029;51.358;5.628;2023-02-20T04:25:32;102164.91;;;7.99;95.13
46303;BME280;32029;51.358;5.628;2023-02-20T04:28:02;102157.72;;;7.98;95.15
46303;BME280;32029;51.358;5.628;2023-02-20T04:30:29;102169.38;;;8.00;95.27
46303;BME280;32029;51.358;5.628;2023-02-20T04:32:56;102161.19;;;8.00;94.99
46303;BME280;32029;51.358;5.628;2023-02-20T04:35:23;102164.19;;;7.97;95.05
46303;BME280;32029;51.358;5.628;2023-02-20T04:37:49;102166.66;;;8.00;94.93
46303;BME280;32029;51.358;5.628;2023-02-20T04:40:19;102170.09;;;8.02;95.02
46303;BME280;32029;51.358;5.628;2023-02-20T04:42:46;102169.09;;;8.03;95.17
46303;BME280;32029;51.358;5.628;2023-02-20T04:45:13;102169.84;;;8.05;95.10
46303;BME280;32029;51.358;5.628;2023-02-20T04:47:39;102167.53;;;8.10;95.18
46303;BME280;32029;51.358;5.628;2023-02-20T04:50:06;102150.44;;;8.08;94.96
46303;BME280;32029;51.358;5.628;2023-02-20T04:52:33;102160.94;;;8.13;94.83
46303;BME280;32029;51.358;5.628;2023-02-20T04:55:00;102159.78;;;8.15;94.73
46303;BME280;32029;51.358;5.628;2023-02-20T04:57:26;102158.78;;;8.16;94.78
46303;BME280;32029;51.358;5.628;2023-02-20T04:59:53;102140.47;;;8.07;94.77
46303;BME280;32029;51.358;5.628;2023-02-20T05:02:20;102165.56;;;8.22;94.68
46303;BME280;32029;51.358;5.628;2023-02-20T05:04:46;102167.28;;;8.23;94.56
46303;BME280;32029;51.358;5.628;2023-02-20T05:07:15;102166.72;;;8.19;94.87
46303;BME280;32029;51.358;5.628;2023-02-20T05:09:43;102175.47;;;8.23;94.79
46303;BME280;32029;51.358;5.628;2023-02-20T05:12:09;102175.09;;;8.27;94.71
46303;BME280;32029;51.358;5.628;2023-02-20T05:14:36;102173.06;;;8.29;95.02
46303;BME280;32029;51.358;5.628;2023-02-20T05:17:03;102160.38;;;8.19;94.82
46303;BME280;32029;51.358;5.628;2023-02-20T05:19:29;102172.78;;;8.32;94.54
46303;BME280;32029;51.358;5.628;2023-02-20T05:21:56;102169.91;;;8.24;94.75
46303;BME280;32029;51.358;5.628;2023-02-20T05:24:42;102177.13;;;8.35;94.78
46303;BME280;32029;51.358;5.628;2023-02-20T05:27:10;102173.25;;;8.38;94.30
46303;BME280;32029;51.358;5.628;2023-02-20T05:29:48;102175.00;;;8.39;94.63
46303;BME280;32029;51.358;5.628;2023-02-20T05:32:15;102176.31;;;8.44;94.44
46303;BME280;32029;51.358;5.628;2023-02-20T05:34:43;102164.22;;;8.47;94.50
46303;BME280;32029;51.358;5.628;2023-02-20T05:37:12;102169.41;;;8.50;94.60
46303;BME280;32029;51.358;5.628;2023-02-20T05:39:39;102159.63;;;8.47;94.26
46303;BME280;32029;51.358;5.628;2023-02-20T05:42:06;102161.63;;;8.45;94.34
46303;BME280;32029;51.358;5.628;2023-02-20T05:44:33;102171.69;;;8.45;94.49
46303;BME280;32029;51.358;5.628;2023-02-20T05:47:01;102162.47;;;8.46;94.54
46303;BME280;32029;51.358;5.628;2023-02-20T05:49:28;102114.94;;;8.27;94.64
46303;BME280;32029;51.358;5.628;2023-02-20T05:51:56;102172.00;;;8.51;94.33
46303;BME280;32029;51.358;5.628;2023-02-20T05:54:23;102145.06;;;8.37;94.65
46303;BME280;32029;51.358;5.628;2023-02-20T05:56:50;102156.88;;;8.47;94.46
46303;BME280;32029;51.358;5.628;2023-02-20T05:59:19;102169.56;;;8.58;94.70
46303;BME280;32029;51.358;5.628;2023-02-20T06:01:47;102182.84;;;8.63;94.17
46303;BME280;32029;51.358;5.628;2023-02-20T06:04:17;102174.31;;;8.66;94.21
46303;BME280;32029;51.358;5.628;2023-02-20T06:06:44;102178.66;;;8.68;94.13
46303;BME280;32029;51.358;5.628;2023-02-20T06:09:11;102178.66;;;8.68;93.84
46303;BME280;32029;51.358;5.628;2023-02-20T06:11:38;102164.25;;;8.66;93.79
46303;BME280;32029;51.358;5.628;2023-02-20T06:14:06;102181.81;;;8.73;93.56
46303;BME280;32029;51.358;5.628;2023-02-20T06:16:33;102178.09;;;8.74;93.42
46303;BME280;32029;51.358;5.628;2023-02-20T06:19:01;102183.25;;;8.77;93.75
46303;BME280;32029;51.358;5.628;2023-02-20T06:21:27;102172.63;;;8.74;93.24
46303;BME280;32029;51.358;5.628;2023-02-20T06:23:54;102183.72;;;8.82;93.59
46303;BME280;32029;51.358;5.628;2023-02-20T06:26:22;102188.75;;;8.87;93.24
46303;BME280;32029;51.358;5.628;2023-02-20T06:28:49;102192.94;;;8.91;93.10
46303;BME280;32029;51.358;5.628;2023-02-20T06:31:21;102182.84;;;8.92;92.55
46303;BME280;32029;51.358;5.628;2023-02-20T06:33:48;102172.91;;;8.91;92.75
46303;BME280;32029;51.358;5.628;2023-02-20T06:36:21;102178.97;;;8.94;92.92
46303;BME280;32029;51.358;5.628;2023-02-20T06:38:48;102166.28;;;8.93;92.86
46303;BME280;32029;51.358;5.628;2023-02-20T06:41:15;102177.50;;;9.00;92.62
46303;BME280;32029;51.358;5.628;2023-02-20T06:43:42;102169.88;;;9.03;92.42
46303;BME280;32029;51.358;5.628;2023-02-20T06:46:08;102168.84;;;9.04;92.43
46303;BME280;32029;51.358;5.628;2023-02-20T06:48:45;102173.19;;;9.07;92.28
46303;BME280;32029;51.358;5.628;2023-02-20T06:51:15;102171.47;;;9.06;92.05
46303;BME280;32029;51.358;5.628;2023-02-20T06:53:41;102168.56;;;9.07;91.52
46303;BME280;32029;51.358;5.628;2023-02-20T06:56:09;102175.94;;;9.07;92.15
46303;BME280;32029;51.358;5.628;2023-02-20T06:58:36;102166.00;;;9.06;91.82
46303;BME280;32029;51.358;5.628;2023-02-20T07:01:03;102153.59;;;8.92;91.97
46303;BME280;32029;51.358;5.628;2023-02-20T07:03:30;102170.28;;;9.08;92.15
46303;BME280;32029;51.358;5.628;2023-02-20T07:05:56;102171.59;;;9.14;91.88
46303;BME280;32029;51.358;5.628;2023-02-20T07:08:23;102173.75;;;9.20;91.61
46303;BME280;32029;51.358;5.628;2023-02-20T07:10:50;102184.41;;;9.23;91.45
46303;BME280;32029;51.358;5.628;2023-02-20T07:13:16;102174.19;;;9.25;90.67
46303;BME280;32029;51.358;5.628;2023-02-20T07:15:43;102163.94;;;9.27;90.48
46303;BME280;32029;51.358;5.628;2023-02-20T07:18:10;102184.88;;;9.28;90.40
46303;BME280;32029;51.358;5.628;2023-02-20T07:20:36;102194.81;;;9.29;90.61
46303;BME280;32029;51.358;5.628;2023-02-20T07:23:03;102187.03;;;9.25;90.04
46303;BME280;32029;51.358;5.628;2023-02-20T07:25:30;102191.03;;;9.30;90.27
46303;BME280;32029;51.358;5.628;2023-02-20T07:27:56;102202.88;;;9.31;89.36
46303;BME280;32029;51.358;5.628;2023-02-20T07:30:23;102188.59;;;9.27;89.34
46303;BME280;32029;51.358;5.628;2023-02-20T07:32:51;102202.28;;;9.27;89.45
46303;BME280;32029;51.358;5.628;2023-02-20T07:35:17;102189.31;;;9.29;88.86
46303;BME280;32029;51.358;5.628;2023-02-20T07:37:44;102191.47;;;9.36;88.45
46303;BME280;32029;51.358;5.628;2023-02-20T07:40:11;102184.09;;;9.36;88.49
46303;BME280;32029;51.358;5.628;2023-02-20T07:42:38;102190.16;;;9.40;88.09
46303;BME280;32029;51.358;5.628;2023-02-20T07:45:05;102185.25;;;9.43;87.92
46303;BME280;32029;51.358;5.628;2023-02-20T07:47:31;102176.16;;;9.43;87.97
46303;BME280;32029;51.358;5.628;2023-02-20T07:49:58;102182.09;;;9.48;88.45
46303;BME280;32029;51.358;5.628;2023-02-20T07:52:25;102181.50;;;9.54;88.17
46303;BME280;32029;51.358;5.628;2023-02-20T07:54:51;102157.28;;;9.40;87.98
46303;BME280;32029;51.358;5.628;2023-02-20T07:57:18;102179.34;;;9.48;87.65
46303;BME280;32029;51.358;5.628;2023-02-20T07:59:45;102197.34;;;9.50;87.80
46303;BME280;32029;51.358;5.628;2023-02-20T08:02:11;102183.81;;;9.49;87.84
46303;BME280;32029;51.358;5.628;2023-02-20T08:04:38;102189.00;;;9.52;87.67
46303;BME280;32029;51.358;5.628;2023-02-20T08:07:05;102178.91;;;9.52;87.43
46303;BME280;32029;51.358;5.628;2023-02-20T08:09:34;102186.81;;;9.55;87.26
46303;BME280;32029;51.358;5.628;2023-02-20T08:12:01;102177.16;;;9.61;87.73
46303;BME280;32029;51.358;5.628;2023-02-20T08:14:27;102182.34;;;9.64;87.16
46303;BME280;32029;51.358;5.628;2023-02-20T08:16:54;102184.06;;;9.65;86.90
46303;BME280;32029;51.358;5.628;2023-02-20T08:19:21;102189.53;;;9.65;86.93
46303;BME280;32029;51.358;5.628;2023-02-20T08:21:48;102186.06;;;9.63;87.16
46303;BME280;32029;51.358;5.628;2023-02-20T08:24:15;102199.34;;;9.68;86.85
46303;BME280;32029;51.358;5.628;2023-02-20T08:26:43;102188.53;;;9.66;87.05
46303;BME280;32029;51.358;5.628;2023-02-20T08:29:10;102191.44;;;9.65;87.07
46303;BME280;32029;51.358;5.628;2023-02-20T08:31:37;102190.25;;;9.67;87.39
46303;BME280;32029;51.358;5.628;2023-02-20T08:34:03;102180.88;;;9.70;87.38
46303;BME280;32029;51.358;5.628;2023-02-20T08:36:30;102177.69;;;9.74;87.54
46303;BME280;32029;51.358;5.628;2023-02-20T08:38:57;102175.03;;;9.82;87.51
46303;BME280;32029;51.358;5.628;2023-02-20T08:41:25;102168.97;;;9.89;87.17
46303;BME280;32029;51.358;5.628;2023-02-20T08:43:52;102176.34;;;9.88;86.67
46303;BME280;32029;51.358;5.628;2023-02-20T08:46:18;102167.97;;;9.90;86.97
46303;BME280;32029;51.358;5.628;2023-02-20T08:48:45;102144.50;;;9.77;86.89
46303;BME280;32029;51.358;5.628;2023-02-20T08:51:12;102164.63;;;9.96;86.48
46303;BME280;32029;51.358;5.628;2023-02-20T08:53:39;102138.84;;;9.79;86.63
46303;BME280;32029;51.358;5.628;2023-02-20T08:56:06;102173.13;;;10.02;86.42
46303;BME280;32029;51.358;5.628;2023-02-20T08:58:33;102172.50;;;10.09;86.34
46303;BME280;32029;51.358;5.628;2023-02-20T09:01:00;102181.28;;;10.12;86.00
46303;BME280;32029;51.358;5.628;2023-02-20T09:03:26;102157.94;;;10.08;86.39
46303;BME280;32029;51.358;5.628;2023-02-20T09:05:53;102177.94;;;10.18;86.15
46303;BME280;32029;51.358;5.628;2023-02-20T09:08:20;102169.72;;;10.18;86.05
46303;BME280;32029;51.358;5.628;2023-02-20T09:10:47;102167.84;;;10.19;86.32
46303;BME280;32029;51.358;5.628;2023-02-20T09:13:13;102171.44;;;10.19;86.25
46303;BME280;32029;51.358;5.628;2023-02-20T09:15:40;102179.50;;;10.21;86.09
46303;BME280;32029;51.358;5.628;2023-02-20T09:18:11;102174.75;;;10.23;85.81
46303;BME280;32029;51.358;5.628;2023-02-20T09:20:39;102174.88;;;10.21;86.06
46303;BME280;32029;51.358;5.628;2023-02-20T09:23:06;102181.22;;;10.22;86.40
46303;BME280;32029;51.358;5.628;2023-02-20T09:25:33;102187.59;;;10.22;86.40
46303;BME280;32029;51.358;5.628;2023-02-20T09:28:01;102180.06;;;10.24;86.15
46303;BME280;32029;51.358;5.628;2023-02-20T09:30:27;102101.19;;;9.81;85.89
46303;BME280;32029;51.358;5.628;2023-02-20T09:32:54;102180.19;;;10.33;86.34
46303;BME280;32029;51.358;5.628;2023-02-20T09:35:24;102180.63;;;10.38;85.99
46303;BME280;32029;51.358;5.628;2023-02-20T09:37:51;102178.56;;;10.40;85.66
46303;BME280;32029;51.358;5.628;2023-02-20T09:40:28;102171.66;;;10.36;85.80
46303;BME280;32029;51.358;5.628;2023-02-20T09:45:25;102179.44;;;10.40;86.26
46303;BME280;32029;51.358;5.628;2023-02-20T09:50:49;102171.16;;;10.50;85.85
46303;BME280;32029;51.358;5.628;2023-02-20T09:53:37;102172.28;;;10.57;85.64
46303;BME280;32029;51.358;5.628;2023-02-20T09:56:11;102162.72;;;10.61;85.57
46303;BME280;32029;51.358;5.628;2023-02-20T10:01:20;102167.47;;;10.59;85.32
46303;BME280;32029;51.358;5.628;2023-02-20T10:03:53;102168.63;;;10.57;85.67
46303;BME280;32029;51.358;5.628;2023-02-20T10:06:27;102164.25;;;10.64;85.86
46303;BME280;32029;51.358;5.628;2023-02-20T10:08:56;102171.72;;;10.71;85.83
46303;BME280;32029;51.358;5.628;2023-02-20T10:11:57;102167.03;;;10.82;85.13
46303;BME280;32029;51.358;5.628;2023-02-20T10:17:26;102147.09;;;10.79;85.03
46303;BME280;32029;51.358;5.628;2023-02-20T10:20:12;102143.88;;;10.84;85.32
46303;BME280;32029;51.358;5.628;2023-02-20T10:25:31;102032.97;;;10.23;84.98
46303;BME280;32029;51.358;5.628;2023-02-20T10:28:10;102142.69;;;10.87;85.40
46303;BME280;32029;51.358;5.628;2023-02-20T10:38:24;102162.16;;;10.93;85.38
46303;BME280;32029;51.358;5.628;2023-02-20T10:41:17;102173.84;;;10.95;85.26
46303;BME280;32029;51.358;5.628;2023-02-20T10:44:07;102147.81;;;10.82;85.23
46303;BME280;32029;51.358;5.628;2023-02-20T10:47:22;102166.63;;;10.94;85.12
46303;BME280;32029;51.358;5.628;2023-02-20T10:52:35;102159.19;;;10.87;85.44
46303;BME280;32029;51.358;5.628;2023-02-20T10:57:37;102177.38;;;11.06;85.44
46303;BME280;32029;51.358;5.628;2023-02-20T11:00:12;102176.34;;;11.07;85.49
46303;BME280;32029;51.358;5.628;2023-02-20T11:02:44;102159.72;;;11.08;85.13
46303;BME280;32029;51.358;5.628;2023-02-20T11:05:18;102177.22;;;11.07;85.34
46303;BME280;32029;51.358;5.628;2023-02-20T11:07:48;102173.47;;;11.08;85.39
46303;BME280;32029;51.358;5.628;2023-02-20T11:10:15;102160.59;;;11.09;85.51
46303;BME280;32029;51.358;5.628;2023-02-20T11:12:46;102147.41;;;11.12;85.57
46303;BME280;32029;51.358;5.628;2023-02-20T11:15:18;102156.66;;;11.11;85.37
46303;BME280;32029;51.358;5.628;2023-02-20T11:17:48;102139.09;;;11.04;85.61
46303;BME280;32029;51.358;5.628;2023-02-20T11:22:59;102145.50;;;10.95;86.63
46303;BME280;32029;51.358;5.628;2023-02-20T11:25:30;102129.75;;;10.79;86.32
46303;BME280;32029;51.358;5.628;2023-02-20T11:30:39;102153.06;;;10.93;86.77
46303;BME280;32029;51.358;5.628;2023-02-20T11:33:16;102144.66;;;10.94;86.48
46303;BME280;32029;51.358;5.628;2023-02-20T11:35:46;102147.88;;;10.90;86.86
46303;BME280;32029;51.358;5.628;2023-02-20T11:43:21;102135.50;;;10.86;87.73
46303;BME280;32029;51.358;5.628;2023-02-20T11:45:49;102123.47;;;10.87;87.63
46303;BME280;32029;51.358;5.628;2023-02-20T11:48:19;102134.16;;;10.90;87.89
46303;BME280;32029;51.358;5.628;2023-02-20T11:50:51;102126.59;;;10.92;87.57
46303;BME280;32029;51.358;5.628;2023-02-20T11:53:30;102132.81;;;10.94;87.64
46303;BME280;32029;51.358;5.628;2023-02-20T11:56:15;102123.41;;;10.96;87.86
46303;BME280;32029;51.358;5.628;2023-02-20T11:58:45;102121.28;;;10.90;87.47
46303;BME280;32029;51.358;5.628;2023-02-20T12:01:32;102031.25;;;10.40;87.30
46303;BME280;32029;51.358;5.628;2023-02-20T12:03:59;102088.63;;;10.87;87.60
46303;BME280;32029;51.358;5.628;2023-02-20T12:09:04;102103.38;;;11.04;87.48
46303;BME280;32029;51.358;5.628;2023-02-20T12:11:32;102071.84;;;10.90;88.15
46303;BME280;32029;51.358;5.628;2023-02-20T12:13:59;102115.06;;;11.06;87.93
46303;BME280;32029;51.358;5.628;2023-02-20T12:16:42;102095.03;;;11.14;87.93
46303;BME280;32029;51.358;5.628;2023-02-20T12:19:39;102084.59;;;11.17;87.49
46303;BME280;32029;51.358;5.628;2023-02-20T12:22:33;102079.94;;;11.18;87.38
46303;BME280;32029;51.358;5.628;2023-02-20T12:27:57;102083.50;;;11.10;87.55
46303;BME280;32029;51.358;5.628;2023-02-20T12:30:51;102086.09;;;11.12;87.91
46303;BME280;32029;51.358;5.628;2023-02-20T12:36:30;102075.44;;;11.09;88.26
46303;BME280;32029;51.358;5.628;2023-02-20T12:39:05;102072.19;;;11.13;88.02
46303;BME280;32029;51.358;5.628;2023-02-20T12:47:29;102076.19;;;11.19;87.88
46303;BME280;32029;51.358;5.628;2023-02-20T12:52:39;102077.75;;;11.21;88.40
46303;BME280;32029;51.358;5.628;2023-02-20T13:00:35;102073.16;;;11.30;87.50
46303;BME280;32029;51.358;5.628;2023-02-20T13:03:10;102062.72;;;11.34;88.30
46303;BME280;32029;51.358;5.628;2023-02-20T13:05:41;102065.38;;;11.43;87.69
46303;BME280;32029;51.358;5.628;2023-02-20T13:08:13;102051.63;;;11.43;87.34
46303;BME280;32029;51.358;5.628;2023-02-20T13:10:52;102040.28;;;11.46;87.34
46303;BME280;32029;51.358;5.628;2023-02-20T13:13:22;102022.06;;;11.45;86.91
46303;BME280;32029;51.358;5.628;2023-02-20T13:15:56;102019.81;;;11.41;87.36
46303;BME280;32029;51.358;5.628;2023-02-20T13:18:36;102015.50;;;11.38;87.41
46303;BME280;32029;51.358;5.628;2023-02-20T13:21:15;102010.88;;;11.39;87.36
46303;BME280;32029;51.358;5.628;2023-02-20T13:23:42;102012.97;;;11.45;87.20
46303;BME280;32029;51.358;5.628;2023-02-20T13:29:12;101994.09;;;11.50;87.27
46303;BME280;32029;51.358;5.628;2023-02-20T13:31:48;101968.63;;;11.40;87.28
46303;BME280;32029;51.358;5.628;2023-02-20T13:34:43;101965.41;;;11.52;86.91
46303;BME280;32029;51.358;5.628;2023-02-20T13:45:43;101974.88;;;11.58;86.81
46303;BME280;32029;51.358;5.628;2023-02-20T13:50:47;101980.59;;;11.73;86.11
46303;BME280;32029;51.358;5.628;2023-02-20T13:53:14;101974.56;;;11.69;86.16
46303;BME280;32029;51.358;5.628;2023-02-20T13:55:41;101981.09;;;11.68;85.85
46303;BME280;32029;51.358;5.628;2023-02-20T13:58:12;101971.16;;;11.67;86.24
46303;BME280;32029;51.358;5.628;2023-02-20T14:00:53;101974.22;;;11.64;86.13
46303;BME280;32029;51.358;5.628;2023-02-20T14:03:26;101959.44;;;11.65;86.08
46303;BME280;32029;51.358;5.628;2023-02-20T14:08:31;101968.41;;;11.75;86.02
46303;BME280;32029;51.358;5.628;2023-02-20T14:11:09;101972.03;;;11.76;85.79
46303;BME280;32029;51.358;5.628;2023-02-20T14:13:38;101960.50;;;11.72;85.60
46303;BME280;32029;51.358;5.628;2023-02-20T14:18:55;101969.53;;;11.91;85.12
46303;BME280;32029;51.358;5.628;2023-02-20T14:21:23;101974.00;;;11.92;84.75
46303;BME280;32029;51.358;5.628;2023-02-20T14:23:51;101969.34;;;11.92;84.18
46303;BME280;32029;51.358;5.628;2023-02-20T14:26:24;101963.31;;;11.89;84.85
46303;BME280;32029;51.358;5.628;2023-02-20T14:28:53;101947.66;;;11.89;84.51
46303;BME280;32029;51.358;5.628;2023-02-20T14:31:34;101963.50;;;11.87;84.69
46303;BME280;32029;51.358;5.628;2023-02-20T14:34:13;101958.84;;;11.88;84.59
46303;BME280;32029;51.358;5.628;2023-02-20T14:39:38;101970.38;;;11.91;84.63
46303;BME280;32029;51.358;5.628;2023-02-20T14:42:22;101959.19;;;11.85;84.31
46303;BME280;32029;51.358;5.628;2023-02-20T14:45:04;101970.63;;;11.72;84.51
46303;BME280;32029;51.358;5.628;2023-02-20T14:47:31;101965.25;;;11.62;85.14
46303;BME280;32029;51.358;5.628;2023-02-20T14:50:15;101959.09;;;11.60;85.73
46303;BME280;32029;51.358;5.628;2023-02-20T14:52:42;101944.84;;;11.65;85.74
46303;BME280;32029;51.358;5.628;2023-02-20T14:55:15;101956.69;;;11.65;85.44
46303;BME280;32029;51.358;5.628;2023-02-20T14:57:57;101952.56;;;11.69;85.56
46303;BME280;32029;51.358;5.628;2023-02-20T15:00:35;101942.09;;;11.73;85.54
46303;BME280;32029;51.358;5.628;2023-02-20T15:03:28;101931.97;;;11.73;85.12